x

Ne St Martin - 330 Nm Ne St Martin Is (41044) Wave Buoy

12:50am - Fri 28th Nov 2014 All times are UTC.

  • Sig Wave height 7.2ft
  • Swell Direction
  • Peak Period 9s
  • Average Period 8s
  • Wind
    11mph, 13mph gusts
  • Sea Temp 81°f
  • Air Temp 79°f
  • Sea Pressure 1015.5mb

More Historic Weather Station data

Upgrade to MSW Pro to gain access to the past 30 days of data for over 8000 Wavebouys and Weather Stations around the globe.

Join Pro

Comparision Forecast

View Surf forecast
   
Fri 11/28 12:50am 7ft 9s 8s 11 13 mph 1015.5mb 81f 79f
Thu 11/27 11:50pm 8ft 10s 8s 11 16 mph 1015.2mb 81f 79f
10:50pm 7.5ft 10s 8s 9 13 mph 1014.8mb 81f 79f
9:50pm 8ft 10s 8s 9 11 mph 1014.5mb 81f 78f
8:50pm 8ft 10s 8s 9 13 mph 1014.4mb 81f 79f
7:50pm 8.5ft 10s 8s 9 11 mph 1014mb 82f 79f
6:50pm 9ft 10s 8s 9 11 mph 1013.6mb 82f 78f
5:50pm 8ft 10s 7s 13 18 mph 1014mb 81f 78f
4:50pm 9ft 11s 8s 11 13 mph 1014.6mb 81f 79f
3:50pm 9ft 10s 8s 11 13 mph 1015.4mb 81f 79f
2:50pm 9ft 10s 7s 11 13 mph 1016mb 81f 78f
1:50pm 9ft 10s 7s 11 16 mph 1016.5mb 81f 79f
12:50pm 8.5ft 10s 7s 13 16 mph 1016.5mb 81f 79f
11:50am 9ft 10s 7s 13 18 mph 1016.1mb 81f 79f
10:50am 9ft 9s 7s 16 18 mph 1015.5mb 81f 79f
9:50am 11ft 9s 7s 16 20 mph 1015mb 81f 79f
8:50am 10ft 10s 7s 18 20 mph 1014.5mb 81f 79f
7:50am 8.5ft 10s 7s 16 20 mph 1014.7mb 81f 79f
6:50am 10ft 9s 7s 11 18 mph 1015.4mb 81f 78f
5:50am 11ft 10s 8s 18 22 mph 1015.3mb 81f 78f
4:50am 9ft 8s 7s 9 11 mph 1016.3mb 81f 75f
3:50am 9.5ft 10s 7s 11 16 mph 1016.7mb 81f 78f
2:50am 9ft 9s 7s 18 22 mph 1017.2mb 81f 78f
1:50am 9ft 8s 7s 18 31 mph 1017.3mb 81f 78f
12:50am 9ft 9s 7s 20 27 mph 1017.3mb 81f 76f
Wed 11/26 11:50pm 9ft 9s 7s 18 22 mph 1017.4mb 81f 79f
10:50pm 8.5ft 9s 7s 20 22 mph 1017.5mb 81f 80f
9:50pm 9ft 8s 7s 20 25 mph 1017.1mb 81f 80f
8:50pm 9ft 9s 7s 18 20 mph 1016.9mb 81f 80f
7:50pm 9ft 9s 7s 16 20 mph 1016.9mb 81f 79f
6:50pm 9ft 9s 7s 20 25 mph 1016.6mb 81f 80f
5:50pm 9ft 9s 7s 20 25 mph 1016.8mb 81f 80f
4:50pm 9.5ft 9s 7s 20 25 mph 1017.3mb 81f 80f
3:50pm 9ft 9s 7s 22 29 mph 1018.1mb 81f 80f
2:50pm 10ft 9s 7s 20 25 mph 1018.9mb 81f 80f
1:50pm 11.5ft 8s 7s 22 27 mph 1019.4mb 81f 79f
12:50pm 10ft 10s 7s 22 27 mph 1019.3mb 81f 79f
11:50am 11ft 10s 7s 20 27 mph 1018.8mb 81f 80f
10:50am 10.5ft 9s 7s 20 27 mph 1018.4mb 81f 80f
9:50am 12ft 10s 7s 20 27 mph 1017.8mb 81f 79f
8:50am 11ft 10s 7s 20 25 mph 1017.5mb 81f 79f
7:50am 12ft 10s 7s 25 31 mph 1017.2mb 81f 80f
6:50am 11ft 9s 7s 22 27 mph 1017.4mb 81f 79f
5:50am 11ft 9s 7s 25 29 mph 1017.7mb 81f 79f
4:50am 11ft 8s 7s 25 29 mph 1017.9mb 81f 80f
3:50am 10ft 8s 7s 25 31 mph 1018.2mb 81f 80f
2:50am 10.5ft 8s 7s 25 29 mph 1018.8mb 81f 78f
1:50am 9ft 8s 6s 25 31 mph 1019mb 81f 80f
12:50am 9ft 8s 6s 25 31 mph 1018.9mb 81f 80f
Tue 11/25 11:50pm 9ft 8s 6s 25 31 mph 1018.9mb 82f 80f
10:50pm 9ft 8s 6s 25 29 mph 1018.7mb 82f 81f
9:50pm 9ft 8s 6s 25 29 mph 1018.2mb 82f 81f
8:50pm 8.5ft 8s 6s 25 29 mph 1018.1mb 82f 80f
7:50pm 8.5ft 8s 6s 22 27 mph 1018.1mb 82f 80f
6:50pm 8.5ft 8s 6s 22 27 mph 1018mb 82f 81f
5:50pm 8ft 8s 6s 20 25 mph 1018.3mb 82f 80f
4:50pm 8ft 8s 6s 18 22 mph 1018.9mb 82f 80f
3:50pm 8ft 8s 6s 22 27 mph 1019.7mb 82f 80f
2:50pm 8ft 8s 6s 22 27 mph 1020.3mb 82f 80f
1:50pm 7.5ft 8s 6s 22 27 mph 1020.6mb 81f 81f
12:50pm 7ft 8s 6s 22 27 mph 1020.4mb 81f 81f
11:50am 8ft 8s 6s 20 22 mph 1020mb 81f 79f
10:50am 7.5ft 8s 6s 25 34 mph 1019.6mb 81f 76f
9:50am 7.5ft 8s 6s 20 22 mph 1019.2mb 81f 80f
8:50am 7.5ft 9s 6s 18 22 mph 1018.9mb 81f 80f
7:50am 8ft 7s 6s 20 22 mph 1018.6mb 81f 80f
6:50am 8ft 8s 6s 20 25 mph 1018.9mb 81f 80f
5:50am 8ft 8s 6s 20 22 mph 1019.4mb 82f 80f
4:50am 8ft 8s 6s 22 25 mph 1020mb 82f 80f
3:50am 8ft 8s 6s 20 25 mph 1020.5mb 82f 80f
2:50am 8ft 11s 6s 22 27 mph 1020.5mb 82f 80f
1:50am 9ft 8s 7s 20 22 mph 1020.6mb 82f 80f
12:50am 8ft 8s 6s 20 25 mph 1020.5mb 82f 80f
Mon 11/24 11:50pm 8.5ft 11s 6s 20 25 mph 1020.2mb 82f 80f
10:50pm 8ft 11s 6s 22 27 mph 1019.7mb 82f 80f
9:50pm 8ft 11s 6s 16 20 mph 1019.6mb 82f 76f
8:50pm 9ft 8s 7s 20 25 mph 1019.1mb 82f 80f
7:50pm 8.5ft 8s 6s 20 22 mph 1018.9mb 82f 80f
6:50pm 9ft 11s 7s 20 22 mph 1018.5mb 82f 80f
5:50pm 8ft 8s 7s 20 22 mph 1018.8mb 82f 80f
4:50pm 8.5ft 11s 7s 18 22 mph 1019.5mb 82f 80f
3:50pm 8ft 8s 6s 18 22 mph 1020.1mb 82f 80f
2:50pm 8.5ft 11s 7s 20 22 mph 1020.6mb 82f 80f
1:50pm 8.5ft 11s 7s 20 25 mph 1020.9mb 82f 80f
12:50pm 8ft 11s 6s 20 25 mph 1020.5mb 82f 80f
11:50am 8.5ft 11s 7s 20 27 mph 1020.1mb 82f 80f
10:50am 10ft 11s 7s 22 27 mph 1019.7mb 82f 80f
9:50am 9ft 6s 6s 22 27 mph 1019.3mb 82f 80f
8:50am 9.5ft 9s 7s 20 25 mph 1018.8mb 82f 80f
7:50am 9.5ft 8s 7s 22 27 mph 1018.5mb 82f 80f
6:50am 10ft 9s 7s 20 25 mph 1018.6mb 82f 80f
5:50am 9ft 12s 7s 20 25 mph 1019.1mb 82f 80f
4:50am 8.5ft 13s 7s 20 25 mph 1019.4mb 82f 80f
3:50am 9ft 11s 7s 20 22 mph 1019.4mb 82f 80f
2:50am 9ft 9s 7s 20 25 mph 1019.9mb 82f 80f